sensor_id;sensor_type;location;lat;lon;timestamp;pressure;altitude;pressure_sealevel;temperature;humidity
58769;BME280;44536;47.474;19.056;2023-04-25T00:01:30;99451.38;;;11.22;97.38
58769;BME280;44536;47.474;19.056;2023-04-25T00:04:34;99442.44;;;11.23;96.86
58769;BME280;44536;47.474;19.056;2023-04-25T00:07:37;99432.94;;;11.30;94.78
58769;BME280;44536;47.474;19.056;2023-04-25T00:10:39;99433.50;;;11.24;93.22
58769;BME280;44536;47.474;19.056;2023-04-25T00:13:41;99428.06;;;11.25;93.13
58769;BME280;44536;47.474;19.056;2023-04-25T00:16:44;99429.59;;;11.28;93.31
58769;BME280;44536;47.474;19.056;2023-04-25T00:19:47;99415.47;;;11.27;92.98
58769;BME280;44536;47.474;19.056;2023-04-25T00:22:49;99412.97;;;11.26;93.64
58769;BME280;44536;47.474;19.056;2023-04-25T00:25:52;99423.59;;;11.26;93.81
58769;BME280;44536;47.474;19.056;2023-04-25T00:28:54;99407.66;;;11.26;92.66
58769;BME280;44536;47.474;19.056;2023-04-25T00:31:57;99408.34;;;11.28;92.96
58769;BME280;44536;47.474;19.056;2023-04-25T00:35:00;99408.50;;;11.26;92.55
58769;BME280;44536;47.474;19.056;2023-04-25T00:38:02;99417.00;;;11.30;92.97
58769;BME280;44536;47.474;19.056;2023-04-25T00:41:07;99409.34;;;11.27;92.52
58769;BME280;44536;47.474;19.056;2023-04-25T00:44:09;99401.25;;;11.19;93.65
58769;BME280;44536;47.474;19.056;2023-04-25T00:47:14;99401.09;;;11.20;93.72
58769;BME280;44536;47.474;19.056;2023-04-25T00:50:17;99402.66;;;11.23;93.12
58769;BME280;44536;47.474;19.056;2023-04-25T00:53:20;99394.00;;;11.21;93.97
58769;BME280;44536;47.474;19.056;2023-04-25T00:56:23;99395.66;;;11.22;93.74
58769;BME280;44536;47.474;19.056;2023-04-25T00:59:25;99373.31;;;11.24;93.50
58769;BME280;44536;47.474;19.056;2023-04-25T01:02:28;99383.09;;;11.24;92.90
58769;BME280;44536;47.474;19.056;2023-04-25T01:05:31;99376.25;;;11.21;94.32
58769;BME280;44536;47.474;19.056;2023-04-25T01:08:33;99369.41;;;11.19;93.88
58769;BME280;44536;47.474;19.056;2023-04-25T01:11:36;99370.25;;;11.19;92.67
58769;BME280;44536;47.474;19.056;2023-04-25T01:14:38;99374.44;;;11.22;92.60
58769;BME280;44536;47.474;19.056;2023-04-25T01:17:41;99376.94;;;11.23;92.79
58769;BME280;44536;47.474;19.056;2023-04-25T01:20:48;99370.50;;;11.26;92.36
58769;BME280;44536;47.474;19.056;2023-04-25T01:23:54;99377.09;;;11.22;93.45
58769;BME280;44536;47.474;19.056;2023-04-25T01:26:57;99374.44;;;11.22;92.23
58769;BME280;44536;47.474;19.056;2023-04-25T01:30:00;99373.44;;;11.23;90.94
58769;BME280;44536;47.474;19.056;2023-04-25T01:33:03;99381.41;;;11.23;92.16
58769;BME280;44536;47.474;19.056;2023-04-25T01:36:07;99368.28;;;11.21;91.45
58769;BME280;44536;47.474;19.056;2023-04-25T01:39:10;99368.87;;;11.15;90.81
58769;BME280;44536;47.474;19.056;2023-04-25T01:42:13;99369.28;;;11.11;91.39
58769;BME280;44536;47.474;19.056;2023-04-25T01:45:15;99371.94;;;11.11;91.15
58769;BME280;44536;47.474;19.056;2023-04-25T01:48:18;99358.81;;;11.09;91.42
58769;BME280;44536;47.474;19.056;2023-04-25T01:51:21;99371.97;;;11.01;91.40
58769;BME280;44536;47.474;19.056;2023-04-25T01:54:24;99362.88;;;11.04;91.23
58769;BME280;44536;47.474;19.056;2023-04-25T01:57:26;99365.81;;;11.10;91.04
58769;BME280;44536;47.474;19.056;2023-04-25T02:00:29;99360.78;;;11.07;91.19
58769;BME280;44536;47.474;19.056;2023-04-25T02:03:32;99368.63;;;10.99;91.26
58769;BME280;44536;47.474;19.056;2023-04-25T02:06:35;99360.22;;;11.04;90.97
58769;BME280;44536;47.474;19.056;2023-04-25T02:09:37;99377.84;;;10.95;90.70
58769;BME280;44536;47.474;19.056;2023-04-25T02:12:40;99377.97;;;10.93;90.59
58769;BME280;44536;47.474;19.056;2023-04-25T02:15:43;99371.59;;;10.86;91.85
58769;BME280;44536;47.474;19.056;2023-04-25T02:18:45;99355.78;;;10.94;90.67
58769;BME280;44536;47.474;19.056;2023-04-25T02:21:48;99358.31;;;10.96;90.80
58769;BME280;44536;47.474;19.056;2023-04-25T02:24:50;99361.22;;;10.93;90.27
58769;BME280;44536;47.474;19.056;2023-04-25T02:27:52;99372.03;;;10.91;89.82
58769;BME280;44536;47.474;19.056;2023-04-25T02:30:56;99381.38;;;10.86;89.76
58769;BME280;44536;47.474;19.056;2023-04-25T02:33:58;99373.41;;;10.86;89.72
58769;BME280;44536;47.474;19.056;2023-04-25T02:37:01;99367.28;;;10.85;89.42
58769;BME280;44536;47.474;19.056;2023-04-25T02:40:05;99378.13;;;10.92;89.40
58769;BME280;44536;47.474;19.056;2023-04-25T02:43:08;99379.28;;;10.89;89.14
58769;BME280;44536;47.474;19.056;2023-04-25T02:46:10;99367.56;;;10.82;89.20
58769;BME280;44536;47.474;19.056;2023-04-25T02:49:14;99374.69;;;10.82;88.15
58769;BME280;44536;47.474;19.056;2023-04-25T02:52:16;99371.19;;;10.81;88.40
58769;BME280;44536;47.474;19.056;2023-04-25T02:55:19;99374.81;;;10.80;88.58
58769;BME280;44536;47.474;19.056;2023-04-25T02:58:22;99378.03;;;10.84;88.28
58769;BME280;44536;47.474;19.056;2023-04-25T03:01:24;99372.44;;;10.77;88.55
58769;BME280;44536;47.474;19.056;2023-04-25T03:04:27;99376.78;;;10.78;89.11
58769;BME280;44536;47.474;19.056;2023-04-25T03:07:30;99378.72;;;10.76;89.37
58769;BME280;44536;47.474;19.056;2023-04-25T03:10:32;99374.28;;;10.77;88.24
58769;BME280;44536;47.474;19.056;2023-04-25T03:13:36;99373.72;;;10.73;89.35
58769;BME280;44536;47.474;19.056;2023-04-25T03:16:38;99366.59;;;10.64;88.77
58769;BME280;44536;47.474;19.056;2023-04-25T03:19:41;99356.16;;;10.63;89.32
58769;BME280;44536;47.474;19.056;2023-04-25T03:22:44;99362.28;;;10.63;88.72
58769;BME280;44536;47.474;19.056;2023-04-25T03:25:47;99355.59;;;10.59;88.67
58769;BME280;44536;47.474;19.056;2023-04-25T03:28:49;99359.06;;;10.59;88.84
58769;BME280;44536;47.474;19.056;2023-04-25T03:31:52;99362.00;;;10.56;88.63
58769;BME280;44536;47.474;19.056;2023-04-25T03:34:55;99362.84;;;10.57;89.05
58769;BME280;44536;47.474;19.056;2023-04-25T03:37:58;99356.28;;;10.51;89.03
58769;BME280;44536;47.474;19.056;2023-04-25T03:41:01;99361.31;;;10.45;88.77
58769;BME280;44536;47.474;19.056;2023-04-25T03:44:05;99372.03;;;10.43;89.00
58769;BME280;44536;47.474;19.056;2023-04-25T03:47:07;99361.34;;;10.35;89.14
58769;BME280;44536;47.474;19.056;2023-04-25T03:50:10;99363.28;;;10.33;89.48
58769;BME280;44536;47.474;19.056;2023-04-25T03:53:12;99367.47;;;10.36;89.06
58769;BME280;44536;47.474;19.056;2023-04-25T03:56:17;99373.31;;;10.30;89.62
58769;BME280;44536;47.474;19.056;2023-04-25T03:59:20;99364.41;;;10.31;90.25
58769;BME280;44536;47.474;19.056;2023-04-25T04:02:22;99382.22;;;10.19;91.10
58769;BME280;44536;47.474;19.056;2023-04-25T04:05:26;99384.00;;;10.18;91.34
58769;BME280;44536;47.474;19.056;2023-04-25T04:08:30;99386.16;;;10.24;90.79
58769;BME280;44536;47.474;19.056;2023-04-25T04:11:35;99375.56;;;10.24;90.61
58769;BME280;44536;47.474;19.056;2023-04-25T04:14:40;99388.38;;;10.19;90.81
58769;BME280;44536;47.474;19.056;2023-04-25T04:17:42;99390.84;;;10.11;90.90
58769;BME280;44536;47.474;19.056;2023-04-25T04:20:45;99399.75;;;10.10;91.11
58769;BME280;44536;47.474;19.056;2023-04-25T04:23:47;99390.69;;;10.13;90.97
58769;BME280;44536;47.474;19.056;2023-04-25T04:26:51;99379.69;;;10.17;91.35
58769;BME280;44536;47.474;19.056;2023-04-25T04:29:54;99390.69;;;10.13;91.67
58769;BME280;44536;47.474;19.056;2023-04-25T04:32:58;99391.69;;;10.12;92.05
58769;BME280;44536;47.474;19.056;2023-04-25T04:36:03;99402.69;;;10.07;92.90
58769;BME280;44536;47.474;19.056;2023-04-25T04:39:06;99398.19;;;9.98;92.56
58769;BME280;44536;47.474;19.056;2023-04-25T04:42:09;99397.06;;;9.91;92.91
58769;BME280;44536;47.474;19.056;2023-04-25T04:45:14;99390.38;;;9.96;94.88
58769;BME280;44536;47.474;19.056;2023-04-25T04:48:19;99398.72;;;9.92;92.81
58769;BME280;44536;47.474;19.056;2023-04-25T04:51:21;99398.03;;;9.90;93.30
58769;BME280;44536;47.474;19.056;2023-04-25T04:54:24;99402.62;;;9.88;93.92
58769;BME280;44536;47.474;19.056;2023-04-25T04:57:28;99397.78;;;9.83;94.23
58769;BME280;44536;47.474;19.056;2023-04-25T05:00:30;99410.56;;;9.78;96.08
58769;BME280;44536;47.474;19.056;2023-04-25T05:03:36;99374.75;;;9.74;96.50
58769;BME280;44536;47.474;19.056;2023-04-25T05:06:39;99383.34;;;9.67;96.99
58769;BME280;44536;47.474;19.056;2023-04-25T05:09:42;99391.13;;;9.58;98.67
58769;BME280;44536;47.474;19.056;2023-04-25T05:12:45;99398.19;;;9.48;100.00
58769;BME280;44536;47.474;19.056;2023-04-25T05:15:47;99390.22;;;9.39;99.57
58769;BME280;44536;47.474;19.056;2023-04-25T05:18:50;99401.63;;;9.39;100.00
58769;BME280;44536;47.474;19.056;2023-04-25T05:21:54;99399.94;;;9.28;100.00
58769;BME280;44536;47.474;19.056;2023-04-25T05:24:57;99402.41;;;9.20;100.00
58769;BME280;44536;47.474;19.056;2023-04-25T05:27:59;99394.97;;;9.14;100.00
58769;BME280;44536;47.474;19.056;2023-04-25T05:31:02;99408.16;;;9.05;100.00
58769;BME280;44536;47.474;19.056;2023-04-25T05:34:05;99405.75;;;9.02;100.00
58769;BME280;44536;47.474;19.056;2023-04-25T05:37:08;99399.75;;;9.00;100.00
58769;BME280;44536;47.474;19.056;2023-04-25T05:40:11;99406.66;;;8.91;100.00
58769;BME280;44536;47.474;19.056;2023-04-25T05:43:15;99410.66;;;8.85;100.00
58769;BME280;44536;47.474;19.056;2023-04-25T05:46:17;99404.78;;;8.61;100.00
58769;BME280;44536;47.474;19.056;2023-04-25T05:49:20;99402.66;;;8.55;100.00
58769;BME280;44536;47.474;19.056;2023-04-25T05:52:23;99405.19;;;8.56;100.00
58769;BME280;44536;47.474;19.056;2023-04-25T05:55:27;99403.84;;;8.62;100.00
58769;BME280;44536;47.474;19.056;2023-04-25T05:58:30;99409.62;;;8.56;100.00
58769;BME280;44536;47.474;19.056;2023-04-25T06:01:33;99408.41;;;8.60;100.00
58769;BME280;44536;47.474;19.056;2023-04-25T06:04:36;99416.66;;;8.67;100.00
58769;BME280;44536;47.474;19.056;2023-04-25T06:07:39;99416.19;;;8.61;100.00
58769;BME280;44536;47.474;19.056;2023-04-25T06:10:43;99408.28;;;8.61;100.00
58769;BME280;44536;47.474;19.056;2023-04-25T06:13:45;99416.78;;;8.65;100.00
58769;BME280;44536;47.474;19.056;2023-04-25T06:16:50;99420.72;;;8.71;100.00
58769;BME280;44536;47.474;19.056;2023-04-25T06:19:53;99429.97;;;8.76;100.00
58769;BME280;44536;47.474;19.056;2023-04-25T06:22:55;99430.00;;;8.86;100.00
58769;BME280;44536;47.474;19.056;2023-04-25T06:25:58;99431.28;;;8.91;100.00
58769;BME280;44536;47.474;19.056;2023-04-25T06:29:02;99432.78;;;9.05;100.00
58769;BME280;44536;47.474;19.056;2023-04-25T06:32:04;99433.50;;;9.07;100.00
58769;BME280;44536;47.474;19.056;2023-04-25T06:35:08;99424.00;;;9.25;100.00
58769;BME280;44536;47.474;19.056;2023-04-25T06:38:12;99436.84;;;9.30;100.00
58769;BME280;44536;47.474;19.056;2023-04-25T06:41:15;99432.59;;;9.48;100.00
58769;BME280;44536;47.474;19.056;2023-04-25T06:44:17;99431.56;;;9.40;100.00
58769;BME280;44536;47.474;19.056;2023-04-25T06:47:23;99437.03;;;9.48;100.00
58769;BME280;44536;47.474;19.056;2023-04-25T06:50:26;99439.75;;;9.57;100.00
58769;BME280;44536;47.474;19.056;2023-04-25T06:53:28;99438.53;;;9.71;100.00
58769;BME280;44536;47.474;19.056;2023-04-25T06:56:31;99446.53;;;9.81;100.00
58769;BME280;44536;47.474;19.056;2023-04-25T06:59:35;99444.47;;;9.94;100.00
58769;BME280;44536;47.474;19.056;2023-04-25T07:02:37;99447.72;;;10.07;100.00
58769;BME280;44536;47.474;19.056;2023-04-25T07:05:41;99449.09;;;10.02;100.00
58769;BME280;44536;47.474;19.056;2023-04-25T07:08:43;99447.94;;;10.44;100.00
58769;BME280;44536;47.474;19.056;2023-04-25T07:11:46;99452.53;;;10.42;100.00
58769;BME280;44536;47.474;19.056;2023-04-25T07:14:49;99449.19;;;10.50;100.00
58769;BME280;44536;47.474;19.056;2023-04-25T07:17:51;99450.31;;;10.67;100.00
58769;BME280;44536;47.474;19.056;2023-04-25T07:20:54;99449.06;;;10.71;100.00
58769;BME280;44536;47.474;19.056;2023-04-25T07:23:57;99446.00;;;10.75;100.00
58769;BME280;44536;47.474;19.056;2023-04-25T07:27:00;99456.44;;;10.96;98.01
58769;BME280;44536;47.474;19.056;2023-04-25T07:30:04;99452.94;;;10.95;97.32
58769;BME280;44536;47.474;19.056;2023-04-25T07:33:07;99449.72;;;11.21;100.00
58769;BME280;44536;47.474;19.056;2023-04-25T07:36:09;99459.84;;;11.45;98.58
58769;BME280;44536;47.474;19.056;2023-04-25T07:39:12;99451.16;;;11.52;96.66
58769;BME280;44536;47.474;19.056;2023-04-25T07:42:15;99458.13;;;11.53;95.38
58769;BME280;44536;47.474;19.056;2023-04-25T07:45:17;99463.09;;;11.85;92.00
58769;BME280;44536;47.474;19.056;2023-04-25T07:48:20;99475.37;;;11.86;92.33
58769;BME280;44536;47.474;19.056;2023-04-25T07:51:23;99469.47;;;11.46;89.40
58769;BME280;44536;47.474;19.056;2023-04-25T07:54:27;99470.44;;;11.54;94.06
58769;BME280;44536;47.474;19.056;2023-04-25T07:57:31;99455.53;;;12.08;89.25
58769;BME280;44536;47.474;19.056;2023-04-25T08:00:35;99462.56;;;12.00;88.24
58769;BME280;44536;47.474;19.056;2023-04-25T08:03:43;99465.97;;;12.47;86.56
58769;BME280;44536;47.474;19.056;2023-04-25T08:06:48;99450.59;;;12.58;83.77
58769;BME280;44536;47.474;19.056;2023-04-25T08:09:51;99460.50;;;13.10;85.16
58769;BME280;44536;47.474;19.056;2023-04-25T08:12:53;99470.16;;;13.11;81.08
58769;BME280;44536;47.474;19.056;2023-04-25T08:15:58;99468.84;;;12.89;80.84
58769;BME280;44536;47.474;19.056;2023-04-25T08:19:00;99473.47;;;12.87;81.65
58769;BME280;44536;47.474;19.056;2023-04-25T08:22:06;99471.12;;;12.84;79.25
58769;BME280;44536;47.474;19.056;2023-04-25T08:25:09;99467.75;;;13.17;77.96
58769;BME280;44536;47.474;19.056;2023-04-25T08:28:13;99471.50;;;12.71;79.75
58769;BME280;44536;47.474;19.056;2023-04-25T08:31:15;99464.12;;;12.83;81.06
58769;BME280;44536;47.474;19.056;2023-04-25T08:34:18;99463.66;;;12.87;81.79
58769;BME280;44536;47.474;19.056;2023-04-25T08:37:22;99470.09;;;13.03;79.09
58769;BME280;44536;47.474;19.056;2023-04-25T08:40:27;99476.72;;;13.34;76.58
58769;BME280;44536;47.474;19.056;2023-04-25T08:43:34;99481.78;;;13.45;76.73
58769;BME280;44536;47.474;19.056;2023-04-25T08:46:38;99480.06;;;13.18;78.17
58769;BME280;44536;47.474;19.056;2023-04-25T08:49:45;99483.75;;;13.43;76.01
58769;BME280;44536;47.474;19.056;2023-04-25T08:52:50;99497.53;;;13.90;75.47
58769;BME280;44536;47.474;19.056;2023-04-25T08:55:56;99496.44;;;14.43;71.26
58769;BME280;44536;47.474;19.056;2023-04-25T08:58:59;99485.28;;;14.64;70.94
58769;BME280;44536;47.474;19.056;2023-04-25T09:02:03;99487.34;;;13.86;70.63
58769;BME280;44536;47.474;19.056;2023-04-25T09:05:06;99495.06;;;13.71;71.25
58769;BME280;44536;47.474;19.056;2023-04-25T09:08:09;99486.97;;;14.23;74.56
58769;BME280;44536;47.474;19.056;2023-04-25T09:11:12;99493.62;;;14.61;71.62
58769;BME280;44536;47.474;19.056;2023-04-25T09:14:20;99487.59;;;14.59;70.84
58769;BME280;44536;47.474;19.056;2023-04-25T09:17:25;99490.47;;;14.74;71.89
58769;BME280;44536;47.474;19.056;2023-04-25T09:20:28;99492.75;;;14.44;70.18
58769;BME280;44536;47.474;19.056;2023-04-25T09:23:45;99490.31;;;14.75;70.65
58769;BME280;44536;47.474;19.056;2023-04-25T09:26:48;99487.50;;;14.85;67.84
58769;BME280;44536;47.474;19.056;2023-04-25T09:29:57;99489.66;;;14.81;68.26
58769;BME280;44536;47.474;19.056;2023-04-25T09:33:06;99487.78;;;14.57;68.84
58769;BME280;44536;47.474;19.056;2023-04-25T09:36:10;99489.00;;;14.79;66.90
58769;BME280;44536;47.474;19.056;2023-04-25T09:39:15;99487.50;;;15.09;66.70
58769;BME280;44536;47.474;19.056;2023-04-25T09:42:24;99480.34;;;14.94;66.84
58769;BME280;44536;47.474;19.056;2023-04-25T09:45:29;99476.47;;;15.20;66.10
58769;BME280;44536;47.474;19.056;2023-04-25T09:48:33;99478.31;;;14.79;67.27
58769;BME280;44536;47.474;19.056;2023-04-25T09:51:36;99483.78;;;14.53;67.11
58769;BME280;44536;47.474;19.056;2023-04-25T09:54:40;99490.31;;;14.83;66.58
58769;BME280;44536;47.474;19.056;2023-04-25T09:57:44;99482.25;;;14.43;67.15
58769;BME280;44536;47.474;19.056;2023-04-25T10:00:51;99480.59;;;14.50;67.97
58769;BME280;44536;47.474;19.056;2023-04-25T10:03:56;99483.47;;;14.22;66.13
58769;BME280;44536;47.474;19.056;2023-04-25T10:07:03;99491.72;;;13.95;66.90
58769;BME280;44536;47.474;19.056;2023-04-25T10:10:08;99478.84;;;13.56;69.32
58769;BME280;44536;47.474;19.056;2023-04-25T10:13:11;99488.59;;;13.74;69.74
58769;BME280;44536;47.474;19.056;2023-04-25T10:16:13;99479.22;;;13.96;68.77
58769;BME280;44536;47.474;19.056;2023-04-25T10:19:16;99479.78;;;13.73;67.12
58769;BME280;44536;47.474;19.056;2023-04-25T10:22:28;99484.41;;;14.05;65.93
58769;BME280;44536;47.474;19.056;2023-04-25T10:25:33;99475.72;;;13.95;65.93
58769;BME280;44536;47.474;19.056;2023-04-25T10:28:54;99477.31;;;13.80;66.96
58769;BME280;44536;47.474;19.056;2023-04-25T10:31:57;99480.75;;;13.72;66.35
58769;BME280;44536;47.474;19.056;2023-04-25T10:35:17;99478.00;;;13.82;65.66
58769;BME280;44536;47.474;19.056;2023-04-25T10:38:34;99471.38;;;13.94;65.40
58769;BME280;44536;47.474;19.056;2023-04-25T10:41:56;99476.59;;;14.46;63.27
58769;BME280;44536;47.474;19.056;2023-04-25T10:45:04;99472.47;;;14.76;61.66
58769;BME280;44536;47.474;19.056;2023-04-25T10:48:25;99479.16;;;15.37;60.59
58769;BME280;44536;47.474;19.056;2023-04-25T10:51:32;99475.09;;;16.51;55.30
58769;BME280;44536;47.474;19.056;2023-04-25T10:54:56;99470.09;;;17.02;54.87
58769;BME280;44536;47.474;19.056;2023-04-25T10:58:00;99486.66;;;17.20;52.89
58769;BME280;44536;47.474;19.056;2023-04-25T11:01:03;99488.91;;;16.32;53.90
58769;BME280;44536;47.474;19.056;2023-04-25T11:04:06;99492.50;;;15.45;56.12
58769;BME280;44536;47.474;19.056;2023-04-25T11:07:54;99503.97;;;15.86;56.42
58769;BME280;44536;47.474;19.056;2023-04-25T11:11:02;99494.66;;;15.49;54.63
58769;BME280;44536;47.474;19.056;2023-04-25T11:14:04;99495.28;;;16.62;52.80
58769;BME280;44536;47.474;19.056;2023-04-25T11:17:07;99494.66;;;17.66;49.38
58769;BME280;44536;47.474;19.056;2023-04-25T11:20:10;99490.37;;;19.31;46.51
58769;BME280;44536;47.474;19.056;2023-04-25T11:23:13;99496.06;;;19.64;45.96
58769;BME280;44536;47.474;19.056;2023-04-25T11:26:18;99500.53;;;18.35;47.42
58769;BME280;44536;47.474;19.056;2023-04-25T11:29:22;99500.50;;;18.50;46.69
58769;BME280;44536;47.474;19.056;2023-04-25T11:32:33;99496.78;;;20.13;45.35
58769;BME280;44536;47.474;19.056;2023-04-25T11:35:47;99501.28;;;20.41;41.13
58769;BME280;44536;47.474;19.056;2023-04-25T11:38:50;99511.97;;;20.69;40.75
58769;BME280;44536;47.474;19.056;2023-04-25T11:41:55;99507.06;;;19.69;43.55
58769;BME280;44536;47.474;19.056;2023-04-25T11:44:58;99507.06;;;18.11;44.26
58769;BME280;44536;47.474;19.056;2023-04-25T11:48:01;99504.97;;;17.32;47.03
58769;BME280;44536;47.474;19.056;2023-04-25T11:51:05;99506.37;;;16.82;48.21
58769;BME280;44536;47.474;19.056;2023-04-25T11:54:11;99507.19;;;16.12;51.13
58769;BME280;44536;47.474;19.056;2023-04-25T11:57:19;99511.91;;;16.10;50.72
58769;BME280;44536;47.474;19.056;2023-04-25T12:00:23;99529.66;;;16.03;50.21
58769;BME280;44536;47.474;19.056;2023-04-25T12:03:45;99524.28;;;16.11;50.19
58769;BME280;44536;47.474;19.056;2023-04-25T12:06:50;99532.59;;;16.16;49.44
58769;BME280;44536;47.474;19.056;2023-04-25T12:09:53;99536.06;;;15.62;51.87
58769;BME280;44536;47.474;19.056;2023-04-25T12:12:55;99530.25;;;16.21;52.92
58769;BME280;44536;47.474;19.056;2023-04-25T12:16:00;99539.19;;;17.07;49.53
58769;BME280;44536;47.474;19.056;2023-04-25T12:19:02;99531.09;;;18.05;45.33
58769;BME280;44536;47.474;19.056;2023-04-25T12:22:46;99521.06;;;18.94;41.97
58769;BME280;44536;47.474;19.056;2023-04-25T12:26:00;99529.31;;;20.19;38.84
58769;BME280;44536;47.474;19.056;2023-04-25T12:29:16;99526.19;;;21.24;38.10
58769;BME280;44536;47.474;19.056;2023-04-25T12:32:18;99525.56;;;20.54;38.47
58769;BME280;44536;47.474;19.056;2023-04-25T12:35:21;99522.94;;;20.26;38.72
58769;BME280;44536;47.474;19.056;2023-04-25T12:38:25;99523.13;;;17.82;42.01
58769;BME280;44536;47.474;19.056;2023-04-25T12:41:28;99523.81;;;19.00;40.09
58769;BME280;44536;47.474;19.056;2023-04-25T12:44:30;99509.44;;;19.85;38.43
58769;BME280;44536;47.474;19.056;2023-04-25T12:47:33;99520.41;;;20.18;36.44
58769;BME280;44536;47.474;19.056;2023-04-25T12:51:05;99499.56;;;20.27;36.51
58769;BME280;44536;47.474;19.056;2023-04-25T12:54:08;99497.78;;;20.47;35.34
58769;BME280;44536;47.474;19.056;2023-04-25T12:57:11;99483.37;;;19.86;35.71
58769;BME280;44536;47.474;19.056;2023-04-25T13:00:14;99505.50;;;19.53;36.19
58769;BME280;44536;47.474;19.056;2023-04-25T13:03:16;99497.59;;;19.02;38.77
58769;BME280;44536;47.474;19.056;2023-04-25T13:06:20;99498.75;;;19.14;38.63
58769;BME280;44536;47.474;19.056;2023-04-25T13:09:22;99478.56;;;19.74;38.70
58769;BME280;44536;47.474;19.056;2023-04-25T13:12:25;99490.84;;;19.90;35.33
58769;BME280;44536;47.474;19.056;2023-04-25T13:15:27;99488.47;;;20.08;39.35
58769;BME280;44536;47.474;19.056;2023-04-25T13:18:30;99486.78;;;19.17;38.15
58769;BME280;44536;47.474;19.056;2023-04-25T13:21:33;99506.34;;;18.39;38.62
58769;BME280;44536;47.474;19.056;2023-04-25T13:24:35;99491.75;;;17.30;38.62
58769;BME280;44536;47.474;19.056;2023-04-25T13:27:38;99484.53;;;16.93;40.68
58769;BME280;44536;47.474;19.056;2023-04-25T13:30:42;99475.69;;;17.30;39.94
58769;BME280;44536;47.474;19.056;2023-04-25T13:33:45;99463.38;;;18.03;40.75
58769;BME280;44536;47.474;19.056;2023-04-25T13:36:47;99467.13;;;18.38;40.09
58769;BME280;44536;47.474;19.056;2023-04-25T13:39:50;99480.38;;;18.25;38.76
58769;BME280;44536;47.474;19.056;2023-04-25T13:42:53;99464.12;;;17.97;39.99
58769;BME280;44536;47.474;19.056;2023-04-25T13:45:55;99464.91;;;17.38;37.52
58769;BME280;44536;47.474;19.056;2023-04-25T13:48:58;99472.59;;;17.04;39.29
58769;BME280;44536;47.474;19.056;2023-04-25T13:52:12;99467.00;;;17.28;39.66
58769;BME280;44536;47.474;19.056;2023-04-25T13:55:15;99466.03;;;17.59;38.66
58769;BME280;44536;47.474;19.056;2023-04-25T13:58:19;99470.25;;;17.38;39.61
58769;BME280;44536;47.474;19.056;2023-04-25T14:01:22;99468.19;;;17.63;40.29
58769;BME280;44536;47.474;19.056;2023-04-25T14:04:25;99469.56;;;17.74;40.39
58769;BME280;44536;47.474;19.056;2023-04-25T14:07:28;99463.19;;;17.75;41.41
58769;BME280;44536;47.474;19.056;2023-04-25T14:10:31;99466.78;;;17.52;37.79
58769;BME280;44536;47.474;19.056;2023-04-25T14:13:33;99471.16;;;16.93;38.88
58769;BME280;44536;47.474;19.056;2023-04-25T14:16:35;99477.94;;;17.04;39.49
58769;BME280;44536;47.474;19.056;2023-04-25T14:19:38;99460.06;;;16.73;39.45
58769;BME280;44536;47.474;19.056;2023-04-25T14:22:45;99465.19;;;16.60;40.52
58769;BME280;44536;47.474;19.056;2023-04-25T14:25:48;99474.06;;;16.83;40.52
58769;BME280;44536;47.474;19.056;2023-04-25T14:28:52;99480.38;;;17.13;39.36
58769;BME280;44536;47.474;19.056;2023-04-25T14:31:55;99465.63;;;17.32;40.02
58769;BME280;44536;47.474;19.056;2023-04-25T14:35:01;99466.19;;;17.42;39.39
58769;BME280;44536;47.474;19.056;2023-04-25T14:38:04;99461.53;;;17.21;39.23
58769;BME280;44536;47.474;19.056;2023-04-25T14:41:07;99474.06;;;17.06;38.02
58769;BME280;44536;47.474;19.056;2023-04-25T14:44:09;99466.44;;;16.72;39.13
58769;BME280;44536;47.474;19.056;2023-04-25T14:47:16;99461.78;;;16.66;38.19
58769;BME280;44536;47.474;19.056;2023-04-25T14:50:19;99455.03;;;16.78;39.32
58769;BME280;44536;47.474;19.056;2023-04-25T14:53:24;99463.28;;;16.92;39.85
58769;BME280;44536;47.474;19.056;2023-04-25T14:56:31;99466.50;;;17.10;39.37
58769;BME280;44536;47.474;19.056;2023-04-25T14:59:35;99462.16;;;17.09;38.01
58769;BME280;44536;47.474;19.056;2023-04-25T15:02:40;99466.75;;;16.77;36.95
58769;BME280;44536;47.474;19.056;2023-04-25T15:05:47;99468.94;;;16.74;38.34
58769;BME280;44536;47.474;19.056;2023-04-25T15:08:50;99463.06;;;16.47;38.25
58769;BME280;44536;47.474;19.056;2023-04-25T15:11:52;99466.59;;;16.48;37.96
58769;BME280;44536;47.474;19.056;2023-04-25T15:14:55;99467.09;;;16.43;38.44
58769;BME280;44536;47.474;19.056;2023-04-25T15:17:57;99478.03;;;16.65;38.64
58769;BME280;44536;47.474;19.056;2023-04-25T15:21:00;99485.91;;;16.27;38.83
58769;BME280;44536;47.474;19.056;2023-04-25T15:24:03;99481.88;;;16.31;38.68
58769;BME280;44536;47.474;19.056;2023-04-25T15:27:06;99474.56;;;15.86;39.22
58769;BME280;44536;47.474;19.056;2023-04-25T15:30:10;99477.44;;;15.68;40.46
58769;BME280;44536;47.474;19.056;2023-04-25T15:33:17;99487.66;;;15.40;41.70
58769;BME280;44536;47.474;19.056;2023-04-25T15:36:19;99483.81;;;15.27;41.60
58769;BME280;44536;47.474;19.056;2023-04-25T15:39:23;99486.31;;;15.12;41.83
58769;BME280;44536;47.474;19.056;2023-04-25T15:42:25;99476.50;;;15.04;42.41
58769;BME280;44536;47.474;19.056;2023-04-25T15:45:27;99480.97;;;14.79;44.21
58769;BME280;44536;47.474;19.056;2023-04-25T15:48:30;99488.66;;;14.74;42.86
58769;BME280;44536;47.474;19.056;2023-04-25T15:51:33;99486.97;;;14.73;43.32
58769;BME280;44536;47.474;19.056;2023-04-25T15:54:36;99495.94;;;14.56;43.86
58769;BME280;44536;47.474;19.056;2023-04-25T15:57:38;99501.19;;;14.32;44.99
58769;BME280;44536;47.474;19.056;2023-04-25T16:00:43;99493.09;;;14.41;46.70
58769;BME280;44536;47.474;19.056;2023-04-25T16:03:46;99489.53;;;14.33;48.71